createdAt,value
2017-05-19T00:01:17.136Z,2.64
2017-05-19T00:03:47.981Z,2.36
2017-05-19T00:06:19.214Z,2.40
2017-05-19T00:08:50.038Z,2.26
2017-05-19T00:11:20.811Z,3.24
2017-05-19T00:13:51.429Z,2.32
2017-05-19T00:16:28.873Z,2.20
2017-05-19T00:18:59.796Z,2.62
2017-05-19T00:21:30.291Z,2.20
2017-05-19T00:24:00.718Z,2.28
2017-05-19T00:26:31.487Z,2.60
2017-05-19T00:29:02.622Z,2.98
2017-05-19T00:31:33.209Z,2.40
2017-05-19T00:34:04.102Z,3.00
2017-05-19T00:36:34.912Z,2.92
2017-05-19T00:39:05.895Z,2.20
2017-05-19T00:41:37.034Z,2.42
2017-05-19T00:44:07.894Z,2.48
2017-05-19T00:46:38.807Z,2.90
2017-05-19T00:49:09.747Z,2.40
2017-05-19T00:51:41.166Z,2.44
2017-05-19T00:54:11.961Z,2.70
2017-05-19T00:56:42.950Z,2.40
2017-05-19T00:59:14.523Z,2.86
2017-05-19T01:01:45.182Z,2.20
2017-05-19T01:04:15.985Z,2.90
2017-05-19T01:06:46.692Z,2.50
2017-05-19T01:09:17.257Z,2.18
2017-05-19T01:11:48.150Z,2.32
2017-05-19T01:14:19.973Z,2.40
2017-05-19T01:16:50.494Z,2.50
2017-05-19T01:19:21.449Z,2.80
2017-05-19T01:21:52.242Z,3.40
2017-05-19T01:24:23.287Z,2.58
2017-05-19T01:26:53.972Z,2.58
2017-05-19T01:29:25.725Z,2.42
2017-05-19T01:31:56.572Z,2.92
2017-05-19T01:34:27.622Z,2.66
2017-05-19T01:36:58.226Z,2.44
2017-05-19T01:39:29.061Z,2.38
2017-05-19T01:41:59.747Z,2.54
2017-05-19T01:44:30.462Z,2.38
2017-05-19T01:47:01.224Z,2.42
2017-05-19T01:49:31.836Z,2.80
2017-05-19T01:52:02.893Z,2.64
2017-05-19T01:54:33.980Z,2.02
2017-05-19T01:57:03.975Z,1.80
2017-05-19T01:59:34.823Z,2.04
2017-05-19T02:02:05.582Z,1.98
2017-05-19T02:04:36.526Z,1.98
2017-05-19T02:07:07.186Z,1.98
2017-05-19T02:09:38.485Z,1.72
2017-05-19T02:12:09.281Z,2.64
2017-05-19T02:14:39.946Z,2.58
2017-05-19T02:17:10.822Z,2.56
2017-05-19T02:19:41.776Z,2.14
2017-05-19T02:22:12.431Z,2.42
2017-05-19T02:24:43.325Z,2.10
2017-05-19T02:27:13.969Z,2.24
2017-05-19T02:29:44.711Z,2.36
2017-05-19T02:32:15.361Z,2.56
2017-05-19T02:34:46.124Z,2.26
2017-05-19T02:37:17.914Z,2.44
2017-05-19T02:39:48.861Z,1.86
2017-05-19T02:42:19.693Z,2.40
2017-05-19T02:44:50.472Z,2.38
2017-05-19T02:47:21.269Z,2.88
2017-05-19T02:49:52.188Z,2.64
2017-05-19T02:52:23.260Z,2.42
2017-05-19T02:54:54.071Z,2.46
2017-05-19T02:57:24.891Z,2.58
2017-05-19T02:59:57.113Z,2.50
2017-05-19T03:02:27.745Z,2.26
2017-05-19T03:04:58.878Z,2.18
2017-05-19T03:07:29.556Z,2.48
2017-05-19T03:10:00.135Z,2.20
2017-05-19T03:12:30.598Z,2.12
2017-05-19T03:15:00.654Z,2.74
2017-05-19T03:17:31.157Z,2.22
2017-05-19T03:20:02.074Z,2.90
2017-05-19T03:22:33.037Z,3.18
2017-05-19T03:25:03.720Z,2.42
2017-05-19T03:27:34.664Z,2.48
2017-05-19T03:30:05.471Z,2.98
2017-05-19T03:32:37.225Z,2.70
2017-05-19T03:35:08.030Z,3.86
2017-05-19T03:37:38.842Z,2.24
2017-05-19T03:40:09.798Z,2.48
2017-05-19T03:42:40.507Z,2.66
2017-05-19T03:45:11.407Z,3.02
2017-05-19T03:47:43.213Z,2.50
2017-05-19T03:50:14.087Z,2.50
2017-05-19T03:52:45.356Z,2.32
2017-05-19T03:55:16.290Z,2.50
2017-05-19T03:57:47.890Z,2.60
2017-05-19T04:00:20.477Z,2.24
2017-05-19T04:02:51.027Z,2.64
2017-05-19T04:05:22.109Z,2.40
2017-05-19T04:07:52.479Z,2.16
2017-05-19T04:10:23.534Z,2.40
2017-05-19T04:12:53.974Z,2.44
2017-05-19T04:15:24.830Z,3.30
2017-05-19T04:17:55.729Z,3.38
2017-05-19T04:20:26.665Z,3.50
2017-05-19T04:22:57.507Z,3.06
2017-05-19T04:25:28.389Z,3.70
2017-05-19T04:27:59.224Z,3.70
2017-05-19T04:30:29.880Z,3.88
2017-05-19T04:33:00.263Z,3.92
2017-05-19T04:35:31.195Z,3.34
2017-05-19T04:38:03.417Z,3.96
2017-05-19T04:40:34.331Z,3.90
2017-05-19T04:43:05.176Z,3.12
2017-05-19T04:45:36.072Z,3.46
2017-05-19T04:48:06.783Z,3.10
2017-05-19T04:50:37.969Z,2.62
2017-05-19T04:53:09.867Z,3.78
2017-05-19T04:55:40.670Z,2.68
2017-05-19T04:58:11.840Z,3.10
2017-05-19T05:00:44.264Z,2.78
2017-05-19T05:03:21.884Z,2.50
2017-05-19T05:05:53.052Z,2.50
2017-05-19T05:08:23.938Z,3.18
2017-05-19T05:10:54.859Z,2.68
2017-05-19T05:13:25.812Z,2.58
2017-05-19T05:15:56.364Z,2.82
2017-05-19T05:18:27.364Z,3.20
2017-05-19T05:20:58.088Z,3.14
2017-05-19T05:23:28.825Z,2.98
2017-05-19T05:25:59.632Z,3.52
2017-05-19T05:28:30.266Z,3.10
2017-05-19T05:31:01.160Z,3.08
2017-05-19T05:33:31.946Z,2.82
2017-05-19T05:36:03.059Z,3.10
2017-05-19T05:38:34.011Z,2.96
2017-05-19T05:41:04.896Z,2.98
2017-05-19T05:43:35.988Z,3.32
2017-05-19T05:46:06.900Z,3.68
2017-05-19T05:48:38.377Z,3.16
2017-05-19T05:51:09.631Z,3.60
2017-05-19T05:53:40.350Z,2.92
2017-05-19T05:56:10.978Z,3.60
2017-05-19T05:58:41.309Z,3.02
2017-05-19T06:01:13.292Z,3.10
2017-05-19T06:03:44.157Z,2.68
2017-05-19T06:06:14.729Z,2.30
2017-05-19T06:08:45.589Z,2.96
2017-05-19T06:11:16.314Z,2.56
2017-05-19T06:13:47.052Z,2.76
2017-05-19T06:16:18.872Z,2.96
2017-05-19T06:18:50.014Z,2.44
2017-05-19T06:21:21.038Z,3.12
2017-05-19T06:23:51.657Z,3.10
2017-05-19T06:26:22.353Z,2.08
2017-05-19T06:28:53.230Z,2.82
2017-05-19T06:31:24.070Z,2.54
2017-05-19T06:33:54.636Z,3.20
2017-05-19T06:36:25.518Z,3.08
2017-05-19T06:38:56.266Z,3.12
2017-05-19T06:41:27.272Z,2.82
2017-05-19T06:43:58.134Z,4.96
2017-05-19T06:46:28.803Z,3.06
2017-05-19T06:48:59.564Z,3.02
2017-05-19T06:51:30.038Z,3.06
2017-05-19T06:54:00.965Z,3.50
2017-05-19T06:56:31.664Z,3.80
2017-05-19T06:59:02.629Z,7.88
2017-05-19T07:01:34.073Z,11.94
2017-05-19T07:04:04.948Z,13.52
2017-05-19T07:06:35.879Z,16.08
2017-05-19T07:09:06.575Z,12.44
2017-05-19T07:11:37.641Z,9.88
2017-05-19T07:14:08.588Z,10.34
2017-05-19T07:16:39.529Z,10.80
2017-05-19T07:19:10.390Z,11.36
2017-05-19T07:21:41.212Z,12.20
2017-05-19T07:24:11.878Z,12.78
2017-05-19T07:26:42.620Z,10.88
2017-05-19T07:29:13.481Z,9.62
2017-05-19T07:31:44.624Z,8.74
2017-05-19T07:34:15.253Z,6.70
2017-05-19T07:36:46.386Z,7.96
2017-05-19T07:39:17.245Z,5.62
2017-05-19T07:41:48.260Z,4.90
2017-05-19T07:44:19.098Z,4.92
2017-05-19T07:46:49.743Z,3.68
2017-05-19T07:49:20.406Z,3.78
2017-05-19T07:51:51.217Z,3.74
2017-05-19T07:54:22.725Z,3.92
2017-05-19T07:56:53.454Z,3.86
2017-05-19T07:59:31.353Z,3.38
2017-05-19T08:02:03.634Z,3.24
2017-05-19T08:04:34.641Z,3.30
2017-05-19T08:07:05.371Z,3.20
2017-05-19T08:09:36.159Z,2.88
2017-05-19T08:12:06.795Z,4.10
2017-05-19T08:14:37.543Z,3.06
2017-05-19T08:17:08.451Z,2.88
2017-05-19T08:19:38.856Z,3.28
2017-05-19T08:22:09.829Z,3.10
2017-05-19T08:24:40.630Z,3.46
2017-05-19T08:27:11.303Z,4.28
2017-05-19T08:29:42.178Z,4.30
2017-05-19T08:32:12.913Z,4.28
2017-05-19T08:34:43.562Z,4.02
2017-05-19T08:37:14.548Z,3.76
2017-05-19T08:39:45.085Z,3.76
2017-05-19T08:42:15.746Z,4.58
2017-05-19T08:44:46.667Z,4.72
2017-05-19T08:47:17.377Z,4.72
2017-05-19T08:49:47.823Z,4.40
2017-05-19T08:52:19.527Z,5.62
2017-05-19T08:54:50.283Z,4.42
2017-05-19T08:57:21.203Z,3.74
2017-05-19T08:59:52.067Z,4.26
2017-05-19T09:02:23.759Z,4.06
2017-05-19T09:04:54.690Z,4.26
2017-05-19T09:07:33.209Z,4.38
2017-05-19T09:10:04.469Z,4.78
2017-05-19T09:12:35.420Z,5.90
2017-05-19T09:15:06.027Z,4.92
2017-05-19T09:17:37.772Z,7.26
2017-05-19T09:20:09.586Z,6.66
2017-05-19T09:22:40.315Z,7.28
2017-05-19T09:25:11.178Z,6.74
2017-05-19T09:27:42.110Z,7.06
2017-05-19T09:30:12.792Z,9.36
2017-05-19T09:32:43.754Z,11.38
2017-05-19T09:35:14.754Z,7.96
2017-05-19T09:37:45.716Z,9.92
2017-05-19T09:40:16.297Z,7.44
2017-05-19T09:42:47.070Z,4.62
2017-05-19T09:45:17.774Z,3.62
2017-05-19T09:47:48.478Z,3.86
2017-05-19T09:50:19.085Z,4.24
2017-05-19T09:52:49.831Z,4.62
2017-05-19T09:55:20.559Z,4.98
2017-05-19T09:57:51.343Z,4.58
2017-05-19T10:00:22.103Z,4.62
2017-05-19T10:02:54.331Z,3.92
2017-05-19T10:05:25.237Z,4.28
2017-05-19T10:07:55.840Z,4.60
2017-05-19T10:10:26.764Z,3.50
2017-05-19T10:12:57.636Z,3.60
2017-05-19T10:15:28.475Z,3.58
2017-05-19T10:17:58.876Z,4.82
2017-05-19T10:20:29.499Z,4.40
2017-05-19T10:23:00.343Z,4.40
2017-05-19T10:25:30.983Z,4.24
2017-05-19T10:28:01.589Z,5.26
2017-05-19T10:30:32.232Z,4.30
2017-05-19T10:33:03.156Z,4.36
2017-05-19T10:35:33.849Z,3.82
2017-05-19T10:38:12.232Z,4.16
2017-05-19T10:40:42.737Z,5.00
2017-05-19T10:43:13.806Z,4.40
2017-05-19T10:45:44.657Z,4.48
2017-05-19T10:48:15.912Z,4.28
2017-05-19T10:50:46.702Z,4.72
2017-05-19T10:53:18.309Z,4.38
2017-05-19T10:55:49.017Z,4.68
2017-05-19T10:58:19.861Z,4.74
2017-05-19T11:00:50.767Z,4.10
2017-05-19T11:03:25.384Z,4.56
2017-05-19T11:05:56.044Z,4.88
2017-05-19T11:08:26.853Z,4.90
2017-05-19T11:10:57.620Z,4.56
2017-05-19T11:13:28.440Z,4.68
2017-05-19T11:15:59.266Z,4.72
2017-05-19T11:18:29.947Z,4.44
2017-05-19T11:21:00.319Z,4.00
2017-05-19T11:23:30.997Z,4.80
2017-05-19T11:26:01.515Z,4.86
2017-05-19T11:28:32.324Z,4.10
2017-05-19T11:31:03.058Z,4.44
2017-05-19T11:33:34.085Z,5.20
2017-05-19T11:36:04.675Z,4.18
2017-05-19T11:38:35.855Z,4.36
2017-05-19T11:41:06.623Z,3.90
2017-05-19T11:43:37.649Z,4.88
2017-05-19T11:46:08.221Z,3.88
2017-05-19T11:48:38.979Z,4.30
2017-05-19T11:51:09.663Z,4.04
2017-05-19T11:53:40.800Z,3.40
2017-05-19T11:56:18.658Z,4.16
2017-05-19T11:58:49.462Z,3.24
2017-05-19T12:01:19.879Z,3.90
2017-05-19T12:03:51.514Z,3.64
2017-05-19T12:06:22.095Z,3.64
2017-05-19T12:08:52.801Z,3.30
2017-05-19T12:11:24.110Z,3.52
2017-05-19T12:13:55.654Z,3.80
2017-05-19T12:16:26.342Z,3.60
2017-05-19T12:18:57.455Z,3.28
2017-05-19T12:21:28.452Z,3.56
2017-05-19T12:23:59.142Z,3.64
2017-05-19T12:26:29.733Z,3.40
2017-05-19T12:29:00.736Z,2.82
2017-05-19T12:31:31.386Z,3.54
2017-05-19T12:34:02.315Z,3.66
2017-05-19T12:36:33.101Z,4.36
2017-05-19T12:39:04.345Z,4.32
2017-05-19T12:41:35.118Z,3.44
2017-05-19T12:44:05.919Z,4.14
2017-05-19T12:46:36.744Z,3.52
2017-05-19T12:49:07.617Z,4.30
2017-05-19T12:51:38.157Z,4.92
2017-05-19T12:54:09.080Z,5.50
2017-05-19T12:56:40.654Z,6.08
2017-05-19T12:59:11.910Z,7.44
2017-05-19T13:01:42.641Z,7.34
2017-05-19T13:04:14.511Z,6.20
2017-05-19T13:06:45.018Z,7.74
2017-05-19T13:09:15.728Z,6.56
2017-05-19T13:11:53.693Z,8.44
2017-05-19T13:14:24.483Z,11.86
2017-05-19T13:16:54.870Z,11.82
2017-05-19T13:19:25.754Z,12.96
2017-05-19T13:21:56.519Z,15.04
2017-05-19T13:24:27.445Z,17.44
2017-05-19T13:26:58.156Z,15.98
2017-05-19T13:29:28.904Z,11.64
2017-05-19T13:31:59.612Z,9.38
2017-05-19T13:34:31.051Z,10.42
2017-05-19T13:37:01.994Z,10.80
2017-05-19T13:39:32.656Z,9.60
2017-05-19T13:42:03.452Z,9.92
2017-05-19T13:44:34.150Z,8.32
2017-05-19T13:47:04.724Z,6.38
2017-05-19T13:49:35.706Z,6.64
2017-05-19T13:52:06.485Z,6.10
2017-05-19T13:54:37.239Z,4.88
2017-05-19T13:57:07.832Z,5.16
2017-05-19T13:59:38.728Z,5.38
2017-05-19T14:02:09.648Z,5.14
2017-05-19T14:04:41.480Z,5.20
2017-05-19T14:07:12.177Z,4.28
2017-05-19T14:09:43.164Z,3.20
2017-05-19T14:12:13.962Z,3.92
2017-05-19T14:14:44.847Z,3.52
2017-05-19T14:17:15.511Z,4.38
2017-05-19T14:19:46.139Z,4.12
2017-05-19T14:22:16.783Z,3.72
2017-05-19T14:24:47.723Z,4.10
2017-05-19T14:27:18.465Z,4.54
2017-05-19T14:29:49.169Z,4.02
2017-05-19T14:32:20.842Z,5.52
2017-05-19T14:34:51.392Z,5.74
2017-05-19T14:37:22.137Z,5.18
2017-05-19T14:39:52.867Z,5.88
2017-05-19T14:42:23.441Z,6.30
2017-05-19T14:44:54.494Z,5.90
2017-05-19T14:47:26.425Z,5.98
2017-05-19T14:49:57.150Z,5.98
2017-05-19T14:52:28.108Z,7.12
2017-05-19T14:54:58.680Z,5.90
2017-05-19T14:57:29.413Z,5.74
2017-05-19T15:00:00.213Z,6.34
2017-05-19T15:02:30.652Z,5.78
2017-05-19T15:05:02.105Z,5.22
2017-05-19T15:07:32.821Z,5.26
2017-05-19T15:10:03.437Z,4.24
2017-05-19T15:12:34.995Z,4.18
2017-05-19T15:15:05.583Z,3.54
2017-05-19T15:17:36.363Z,4.70
2017-05-19T15:20:07.068Z,4.70
2017-05-19T15:22:37.459Z,5.22
2017-05-19T15:25:08.338Z,4.08
2017-05-19T15:27:39.378Z,4.44
2017-05-19T15:30:10.107Z,3.90
2017-05-19T15:32:40.794Z,3.70
2017-05-19T15:35:10.857Z,4.30
2017-05-19T15:37:40.874Z,3.90
2017-05-19T15:40:11.679Z,3.72
2017-05-19T15:42:42.452Z,3.66
2017-05-19T15:45:13.185Z,2.80
2017-05-19T15:47:43.858Z,3.94
2017-05-19T15:50:15.571Z,2.90
2017-05-19T15:52:46.401Z,2.74
2017-05-19T15:55:17.507Z,2.84
2017-05-19T15:57:48.350Z,3.22
2017-05-19T16:00:19.128Z,3.60
2017-05-19T16:02:49.714Z,3.90
2017-05-19T16:05:21.562Z,3.50
2017-05-19T16:07:52.346Z,3.40
2017-05-19T16:10:23.455Z,3.02
2017-05-19T16:12:54.146Z,3.26
2017-05-19T16:15:25.062Z,2.14
2017-05-19T16:17:55.642Z,2.76
2017-05-19T16:20:26.386Z,3.30
2017-05-19T16:22:57.260Z,3.02
2017-05-19T16:25:27.902Z,3.04
2017-05-19T16:27:58.654Z,3.36
2017-05-19T16:30:29.664Z,3.24
2017-05-19T16:33:00.169Z,3.22
2017-05-19T16:35:30.754Z,3.10
2017-05-19T16:38:01.460Z,3.10
2017-05-19T16:40:32.182Z,3.10
2017-05-19T16:43:03.132Z,3.12
2017-05-19T16:45:33.840Z,3.76
2017-05-19T16:48:04.791Z,3.72
2017-05-19T16:50:35.520Z,4.02
2017-05-19T16:53:06.148Z,3.98
2017-05-19T16:55:37.056Z,3.70
2017-05-19T16:58:08.637Z,3.74
2017-05-19T17:00:39.784Z,3.74
2017-05-19T17:03:10.529Z,3.20
2017-05-19T17:05:42.345Z,3.00
2017-05-19T17:08:13.011Z,3.50
2017-05-19T17:10:43.671Z,3.16
2017-05-19T17:13:14.272Z,3.48
2017-05-19T17:15:45.247Z,3.50
2017-05-19T17:18:15.800Z,3.88
2017-05-19T17:20:46.577Z,3.26
2017-05-19T17:23:17.331Z,3.50
2017-05-19T17:25:47.974Z,3.36
2017-05-19T17:28:18.741Z,2.66
2017-05-19T17:30:49.403Z,2.30
2017-05-19T17:33:21.071Z,2.48
2017-05-19T17:35:51.990Z,2.92
2017-05-19T17:38:22.623Z,3.34
2017-05-19T17:40:53.356Z,2.48
2017-05-19T17:43:24.145Z,4.02
2017-05-19T17:45:54.706Z,5.48
2017-05-19T17:48:25.383Z,4.46
2017-05-19T17:50:56.318Z,4.42
2017-05-19T17:53:27.097Z,3.20
2017-05-19T17:55:57.806Z,3.14
2017-05-19T17:58:28.565Z,4.50
2017-05-19T18:00:59.419Z,3.34
2017-05-19T18:03:31.086Z,3.46
2017-05-19T18:06:03.129Z,2.44
2017-05-19T18:08:33.961Z,2.38
2017-05-19T18:11:04.506Z,2.26
2017-05-19T18:13:35.357Z,2.16
2017-05-19T18:16:06.235Z,2.38
2017-05-19T18:18:37.086Z,2.70
2017-05-19T18:21:08.140Z,2.18
2017-05-19T18:23:39.032Z,2.20
2017-05-19T18:26:10.027Z,2.30
2017-05-19T18:28:40.552Z,3.36
2017-05-19T18:31:11.031Z,2.56
2017-05-19T18:33:41.861Z,1.90
2017-05-19T18:36:12.269Z,1.68
2017-05-19T18:38:43.250Z,2.00
2017-05-19T18:41:13.952Z,2.20
2017-05-19T18:43:44.559Z,2.08
2017-05-19T18:46:15.346Z,2.30
2017-05-19T18:48:46.162Z,1.90
2017-05-19T18:51:17.090Z,1.88
2017-05-19T18:53:48.524Z,1.54
2017-05-19T18:56:19.323Z,1.60
2017-05-19T18:58:49.947Z,1.00
2017-05-19T19:01:20.639Z,1.10
2017-05-19T19:03:51.266Z,0.78
2017-05-19T19:06:23.897Z,0.60
2017-05-19T19:08:54.956Z,0.88
2017-05-19T19:11:25.887Z,1.40
2017-05-19T19:13:56.473Z,0.90
2017-05-19T19:16:27.180Z,1.44
2017-05-19T19:18:58.050Z,1.26
2017-05-19T19:21:28.700Z,1.40
2017-05-19T19:23:59.485Z,1.58
2017-05-19T19:26:30.214Z,1.08
2017-05-19T19:29:01.077Z,1.14
2017-05-19T19:31:31.747Z,1.60
2017-05-19T19:34:02.487Z,1.12
2017-05-19T19:36:33.319Z,1.20
2017-05-19T19:39:04.449Z,1.10
2017-05-19T19:41:35.253Z,0.88
2017-05-19T19:44:06.089Z,0.90
2017-05-19T19:46:36.882Z,1.04
2017-05-19T19:49:07.765Z,0.88
2017-05-19T19:51:38.631Z,1.00
2017-05-19T19:54:09.259Z,1.36
2017-05-19T19:56:40.074Z,0.86
2017-05-19T19:59:10.585Z,0.90
2017-05-19T20:01:41.557Z,1.00
2017-05-19T20:04:12.361Z,0.90
2017-05-19T20:06:44.314Z,1.24
2017-05-19T20:09:15.345Z,1.12
2017-05-19T20:11:46.292Z,1.82
2017-05-19T20:14:16.693Z,1.22
2017-05-19T20:16:47.652Z,1.38
2017-05-19T20:19:18.469Z,1.22
2017-05-19T20:21:49.535Z,1.12
2017-05-19T20:24:20.183Z,1.24
2017-05-19T20:26:51.033Z,0.90
2017-05-19T20:29:21.803Z,1.00
2017-05-19T20:31:52.585Z,1.18
2017-05-19T20:34:23.626Z,1.10
2017-05-19T20:36:54.522Z,1.00
2017-05-19T20:39:25.444Z,1.04
2017-05-19T20:41:56.389Z,1.10
2017-05-19T20:44:27.117Z,1.04
2017-05-19T20:46:58.097Z,1.08
2017-05-19T20:49:28.549Z,0.80
2017-05-19T20:52:00.011Z,0.94
2017-05-19T20:54:30.440Z,1.10
2017-05-19T20:57:01.137Z,1.14
2017-05-19T20:59:31.743Z,1.34
2017-05-19T21:02:02.681Z,1.50
2017-05-19T21:04:33.260Z,1.34
2017-05-19T21:07:05.419Z,1.40
2017-05-19T21:09:35.868Z,1.20
2017-05-19T21:12:07.651Z,1.94
2017-05-19T21:14:38.411Z,1.30
2017-05-19T21:17:09.437Z,1.30
2017-05-19T21:19:40.509Z,1.32
2017-05-19T21:22:11.198Z,1.48
2017-05-19T21:24:41.934Z,1.52
2017-05-19T21:27:12.848Z,1.46
2017-05-19T21:29:43.978Z,1.58
2017-05-19T21:32:14.797Z,1.40
2017-05-19T21:34:45.520Z,1.80
2017-05-19T21:37:16.130Z,1.64
2017-05-19T21:39:46.981Z,1.64
2017-05-19T21:42:17.949Z,1.40
2017-05-19T21:44:48.642Z,1.40
2017-05-19T21:47:19.409Z,1.10
2017-05-19T21:49:50.078Z,0.98
2017-05-19T21:52:20.719Z,1.14
2017-05-19T21:54:51.191Z,1.48
2017-05-19T21:57:21.930Z,1.38
2017-05-19T21:59:52.520Z,1.58
2017-05-19T22:02:23.366Z,1.20
2017-05-19T22:04:54.078Z,1.64
2017-05-19T22:07:25.664Z,1.30
2017-05-19T22:09:56.474Z,1.50
2017-05-19T22:12:27.516Z,1.50
2017-05-19T22:14:57.932Z,1.50
2017-05-19T22:17:29.618Z,1.90
2017-05-19T22:20:00.175Z,1.40
2017-05-19T22:22:31.038Z,1.52
2017-05-19T22:25:01.914Z,1.68
2017-05-19T22:27:32.699Z,1.50
2017-05-19T22:30:03.628Z,1.80
2017-05-19T22:32:34.421Z,1.78
2017-05-19T22:35:04.931Z,1.50
2017-05-19T22:37:35.677Z,1.56
2017-05-19T22:40:06.424Z,1.66
2017-05-19T22:42:37.560Z,1.64
2017-05-19T22:45:08.383Z,1.72
2017-05-19T22:47:39.242Z,1.64
2017-05-19T22:50:09.954Z,1.70
2017-05-19T22:52:41.383Z,1.38
2017-05-19T22:55:12.159Z,1.20
2017-05-19T22:57:43.873Z,1.40
2017-05-19T23:00:14.791Z,1.58
2017-05-19T23:02:45.474Z,1.36
2017-05-19T23:05:16.179Z,1.32
2017-05-19T23:07:48.267Z,1.32
2017-05-19T23:10:19.957Z,1.28
2017-05-19T23:12:50.728Z,1.50
2017-05-19T23:15:21.607Z,1.24
2017-05-19T23:17:52.442Z,1.78
2017-05-19T23:21:04.387Z,1.30
2017-05-19T23:23:34.753Z,1.32
2017-05-19T23:26:05.124Z,1.20
2017-05-19T23:28:35.179Z,1.12
2017-05-19T23:31:05.315Z,1.52
2017-05-19T23:33:35.541Z,1.66
2017-05-19T23:36:05.675Z,1.36
2017-05-19T23:38:36.056Z,1.60
2017-05-19T23:41:06.071Z,1.66
2017-05-19T23:43:36.338Z,1.24
2017-05-19T23:46:06.703Z,1.48
2017-05-19T23:48:36.987Z,1.34
2017-05-19T23:51:07.174Z,1.42
2017-05-19T23:53:37.462Z,1.48
2017-05-19T23:56:06.849Z,1.36
2017-05-19T23:58:36.917Z,1.44
